Terminal Aerodrome Forecast
Issued by NWS Sterling, VA

Current Version | Previous Version | Text Only | Print | Product List | Glossary Off
Versions: 1 2 3 4 5 6 7 8 9 10 11 12 13 14 15 16 17

030
FTUS41 KLWX 232059 AAA
TAFMRB
TAF AMD
KMRB 232059Z 2321/2418 33005KT P6SM -SHRA SCT060 BKN150
      TEMPO 2321/2322 VRB15KT 5SM -SHRA OVC050
     FM240000 27004KT P6SM BKN140
     FM240800 VRB02KT 5SM BR SCT150
     FM241300 30008KT P6SM SCT050=

USA.gov is the U.S. government's official web portal to all federal, state and local government web resources and services.